sensor_id;sensor_type;location;lat;lon;timestamp;pressure;altitude;pressure_sealevel;temperature;humidity
67803;BME280;54601;51.378;-1.342;2023-04-10T00:00:41;100122.70;;;19.44;30.42
67803;BME280;54601;51.378;-1.342;2023-04-10T00:03:06;100119.25;;;19.95;29.88
67803;BME280;54601;51.378;-1.342;2023-04-10T00:05:31;100113.66;;;19.49;30.31
67803;BME280;54601;51.378;-1.342;2023-04-10T00:07:56;100100.52;;;19.77;30.04
67803;BME280;54601;51.378;-1.342;2023-04-10T00:10:21;100091.12;;;20.26;29.82
67803;BME280;54601;51.378;-1.342;2023-04-10T00:12:46;100087.94;;;20.00;29.89
67803;BME280;54601;51.378;-1.342;2023-04-10T00:15:11;100081.39;;;19.17;30.35
67803;BME280;54601;51.378;-1.342;2023-04-10T00:17:38;100079.76;;;19.37;30.18
67803;BME280;54601;51.378;-1.342;2023-04-10T00:20:02;100078.82;;;19.43;30.37
67803;BME280;54601;51.378;-1.342;2023-04-10T00:22:27;100081.62;;;19.61;30.21
67803;BME280;54601;51.378;-1.342;2023-04-10T00:24:52;100081.08;;;19.53;30.21
67803;BME280;54601;51.378;-1.342;2023-04-10T00:27:17;100077.61;;;19.40;30.44
67803;BME280;54601;51.378;-1.342;2023-04-10T00:29:42;100078.14;;;19.54;30.22
67803;BME280;54601;51.378;-1.342;2023-04-10T00:32:07;100074.44;;;20.11;29.97
67803;BME280;54601;51.378;-1.342;2023-04-10T00:34:32;100076.52;;;19.84;29.94
67803;BME280;54601;51.378;-1.342;2023-04-10T00:36:58;100074.95;;;19.71;29.82
67803;BME280;54601;51.378;-1.342;2023-04-10T00:39:22;100074.25;;;20.02;29.80
67803;BME280;54601;51.378;-1.342;2023-04-10T00:41:47;100079.42;;;19.84;30.01
67803;BME280;54601;51.378;-1.342;2023-04-10T00:44:12;100070.41;;;19.78;30.06
67803;BME280;54601;51.378;-1.342;2023-04-10T00:46:39;100064.68;;;19.56;29.91
67803;BME280;54601;51.378;-1.342;2023-04-10T00:49:03;100064.32;;;19.33;30.37
67803;BME280;54601;51.378;-1.342;2023-04-10T00:51:28;100062.55;;;19.82;30.21
67803;BME280;54601;51.378;-1.342;2023-04-10T00:53:53;100068.33;;;19.75;30.06
67803;BME280;54601;51.378;-1.342;2023-04-10T00:56:18;100055.07;;;19.91;29.86
67803;BME280;54601;51.378;-1.342;2023-04-10T00:58:43;100055.91;;;19.74;29.98
67803;BME280;54601;51.378;-1.342;2023-04-10T01:01:08;100059.72;;;19.71;30.15
67803;BME280;54601;51.378;-1.342;2023-04-10T01:03:33;100058.01;;;19.50;30.27
67803;BME280;54601;51.378;-1.342;2023-04-10T01:06:06;100057.97;;;19.75;30.01
67803;BME280;54601;51.378;-1.342;2023-04-10T01:08:29;100054.84;;;19.75;30.04
67803;BME280;54601;51.378;-1.342;2023-04-10T01:10:55;100049.14;;;19.46;30.31
67803;BME280;54601;51.378;-1.342;2023-04-10T01:13:18;100040.46;;;19.48;30.01
67803;BME280;54601;51.378;-1.342;2023-04-10T01:15:44;100032.53;;;19.97;30.07
67803;BME280;54601;51.378;-1.342;2023-04-10T01:18:10;100029.74;;;20.07;29.97
67803;BME280;54601;51.378;-1.342;2023-04-10T01:20:31;100027.99;;;19.97;30.06
67803;BME280;54601;51.378;-1.342;2023-04-10T01:23:11;100026.45;;;19.94;30.05
67803;BME280;54601;51.378;-1.342;2023-04-10T01:25:32;100020.98;;;19.74;30.06
67803;BME280;54601;51.378;-1.342;2023-04-10T01:27:54;100012.59;;;19.78;30.05
67803;BME280;54601;51.378;-1.342;2023-04-10T01:30:13;100008.31;;;19.88;30.16
67803;BME280;54601;51.378;-1.342;2023-04-10T01:32:35;100004.14;;;20.11;29.89
67803;BME280;54601;51.378;-1.342;2023-04-10T01:35:02;99994.55;;;19.85;30.15
67803;BME280;54601;51.378;-1.342;2023-04-10T01:37:28;99987.84;;;18.98;30.54
67803;BME280;54601;51.378;-1.342;2023-04-10T01:39:53;99985.11;;;19.92;30.14
67803;BME280;54601;51.378;-1.342;2023-04-10T01:42:16;99981.77;;;19.48;30.08
67803;BME280;54601;51.378;-1.342;2023-04-10T01:44:41;99979.39;;;19.92;30.10
67803;BME280;54601;51.378;-1.342;2023-04-10T01:47:06;99980.29;;;19.55;30.03
67803;BME280;54601;51.378;-1.342;2023-04-10T01:49:30;99974.61;;;19.78;30.27
67803;BME280;54601;51.378;-1.342;2023-04-10T01:51:56;99967.85;;;18.90;30.62
67803;BME280;54601;51.378;-1.342;2023-04-10T01:54:20;99966.14;;;19.76;30.31
67803;BME280;54601;51.378;-1.342;2023-04-10T01:56:45;99968.24;;;19.31;30.25
67803;BME280;54601;51.378;-1.342;2023-04-10T01:59:10;99963.50;;;19.82;30.21
67803;BME280;54601;51.378;-1.342;2023-04-10T02:01:35;99957.36;;;19.70;30.10
67803;BME280;54601;51.378;-1.342;2023-04-10T02:04:01;99952.11;;;19.95;30.12
67803;BME280;54601;51.378;-1.342;2023-04-10T02:06:33;99946.59;;;19.38;30.42
67803;BME280;54601;51.378;-1.342;2023-04-10T02:08:55;99944.28;;;19.41;30.14
67803;BME280;54601;51.378;-1.342;2023-04-10T02:11:23;99946.21;;;19.72;30.10
67803;BME280;54601;51.378;-1.342;2023-04-10T02:13:41;99946.62;;;19.37;30.22
67803;BME280;54601;51.378;-1.342;2023-04-10T02:16:07;99936.84;;;19.84;30.02
67803;BME280;54601;51.378;-1.342;2023-04-10T02:18:33;99933.41;;;19.66;30.18
67803;BME280;54601;51.378;-1.342;2023-04-10T02:20:56;99939.42;;;19.88;30.22
67803;BME280;54601;51.378;-1.342;2023-04-10T02:23:21;99935.42;;;19.37;30.79
67803;BME280;54601;51.378;-1.342;2023-04-10T02:25:46;99935.31;;;19.72;30.16
67803;BME280;54601;51.378;-1.342;2023-04-10T02:28:11;99929.56;;;20.00;30.08
67803;BME280;54601;51.378;-1.342;2023-04-10T02:30:36;99929.78;;;20.02;30.08
67803;BME280;54601;51.378;-1.342;2023-04-10T02:33:02;99928.34;;;19.72;30.12
67803;BME280;54601;51.378;-1.342;2023-04-10T02:35:27;99925.42;;;19.84;30.25
67803;BME280;54601;51.378;-1.342;2023-04-10T02:37:52;99922.63;;;19.60;30.31
67803;BME280;54601;51.378;-1.342;2023-04-10T02:40:17;99921.56;;;19.24;30.60
67803;BME280;54601;51.378;-1.342;2023-04-10T02:42:42;99919.96;;;19.42;30.46
67803;BME280;54601;51.378;-1.342;2023-04-10T02:45:08;99913.29;;;19.28;30.60
67803;BME280;54601;51.378;-1.342;2023-04-10T02:47:32;99909.26;;;19.62;30.29
67803;BME280;54601;51.378;-1.342;2023-04-10T02:49:57;99909.54;;;19.36;30.55
67803;BME280;54601;51.378;-1.342;2023-04-10T02:52:22;99908.53;;;19.63;30.53
67803;BME280;54601;51.378;-1.342;2023-04-10T02:54:48;99901.44;;;19.78;30.32
67803;BME280;54601;51.378;-1.342;2023-04-10T02:57:13;99890.50;;;19.52;30.31
67803;BME280;54601;51.378;-1.342;2023-04-10T02:59:38;99887.55;;;19.81;30.34
67803;BME280;54601;51.378;-1.342;2023-04-10T03:02:03;99886.87;;;19.78;30.31
67803;BME280;54601;51.378;-1.342;2023-04-10T03:04:31;99884.17;;;19.53;30.35
67803;BME280;54601;51.378;-1.342;2023-04-10T03:06:53;99888.21;;;19.81;30.27
67803;BME280;54601;51.378;-1.342;2023-04-10T03:09:18;99885.51;;;19.69;30.40
67803;BME280;54601;51.378;-1.342;2023-04-10T03:11:44;99885.47;;;19.87;30.21
67803;BME280;54601;51.378;-1.342;2023-04-10T03:14:09;99879.42;;;19.15;30.73
67803;BME280;54601;51.378;-1.342;2023-04-10T03:16:34;99877.96;;;19.64;30.50
67803;BME280;54601;51.378;-1.342;2023-04-10T03:18:59;99882.27;;;19.72;30.43
67803;BME280;54601;51.378;-1.342;2023-04-10T03:21:24;99883.25;;;19.18;30.76
67803;BME280;54601;51.378;-1.342;2023-04-10T03:23:49;99879.98;;;19.74;30.39
67803;BME280;54601;51.378;-1.342;2023-04-10T03:26:14;99879.19;;;19.71;30.44
67803;BME280;54601;51.378;-1.342;2023-04-10T03:28:39;99872.67;;;19.37;30.84
67803;BME280;54601;51.378;-1.342;2023-04-10T03:31:05;99874.54;;;19.56;30.68
67803;BME280;54601;51.378;-1.342;2023-04-10T03:33:30;99871.67;;;19.23;30.95
67803;BME280;54601;51.378;-1.342;2023-04-10T03:35:55;99870.60;;;19.58;30.58
67803;BME280;54601;51.378;-1.342;2023-04-10T03:38:20;99860.69;;;19.71;30.47
67803;BME280;54601;51.378;-1.342;2023-04-10T03:40:45;99853.38;;;19.51;30.68
67803;BME280;54601;51.378;-1.342;2023-04-10T03:43:10;99851.76;;;19.23;30.77
67803;BME280;54601;51.378;-1.342;2023-04-10T03:45:35;99856.42;;;19.63;30.51
67803;BME280;54601;51.378;-1.342;2023-04-10T03:48:00;99851.97;;;19.70;30.48
67803;BME280;54601;51.378;-1.342;2023-04-10T03:50:26;99846.42;;;19.54;30.62
67803;BME280;54601;51.378;-1.342;2023-04-10T03:52:51;99844.99;;;19.25;30.92
67803;BME280;54601;51.378;-1.342;2023-04-10T03:55:16;99838.89;;;19.11;30.91
67803;BME280;54601;51.378;-1.342;2023-04-10T03:57:41;99838.62;;;19.45;30.76
67803;BME280;54601;51.378;-1.342;2023-04-10T04:00:07;99835.18;;;19.16;31.12
67803;BME280;54601;51.378;-1.342;2023-04-10T04:02:31;99823.70;;;19.23;31.02
67803;BME280;54601;51.378;-1.342;2023-04-10T04:04:56;99822.07;;;19.13;31.19
67803;BME280;54601;51.378;-1.342;2023-04-10T04:07:21;99820.21;;;19.36;30.93
67803;BME280;54601;51.378;-1.342;2023-04-10T04:09:47;99816.18;;;19.25;31.01
67803;BME280;54601;51.378;-1.342;2023-04-10T04:12:12;99816.20;;;19.43;30.83
67803;BME280;54601;51.378;-1.342;2023-04-10T04:14:37;99816.84;;;19.18;31.14
67803;BME280;54601;51.378;-1.342;2023-04-10T04:17:02;99810.18;;;19.26;31.02
67803;BME280;54601;51.378;-1.342;2023-04-10T04:19:27;99799.44;;;19.14;31.18
67803;BME280;54601;51.378;-1.342;2023-04-10T04:21:52;99789.59;;;19.10;31.25
67803;BME280;54601;51.378;-1.342;2023-04-10T04:24:17;99789.20;;;19.28;31.03
67803;BME280;54601;51.378;-1.342;2023-04-10T04:26:42;99793.71;;;19.10;31.21
67803;BME280;54601;51.378;-1.342;2023-04-10T04:29:07;99794.60;;;19.20;31.14
67803;BME280;54601;51.378;-1.342;2023-04-10T04:31:33;99796.44;;;18.94;31.14
67803;BME280;54601;51.378;-1.342;2023-04-10T04:33:58;99789.97;;;19.24;31.09
67803;BME280;54601;51.378;-1.342;2023-04-10T04:36:23;99786.20;;;19.27;31.03
67803;BME280;54601;51.378;-1.342;2023-04-10T04:38:48;99779.16;;;19.12;31.19
67803;BME280;54601;51.378;-1.342;2023-04-10T04:41:13;99774.69;;;19.19;31.09
67803;BME280;54601;51.378;-1.342;2023-04-10T04:43:38;99773.33;;;19.20;31.11
67803;BME280;54601;51.378;-1.342;2023-04-10T04:46:04;99765.67;;;18.76;31.49
67803;BME280;54601;51.378;-1.342;2023-04-10T04:48:28;99764.15;;;19.13;31.12
67803;BME280;54601;51.378;-1.342;2023-04-10T04:50:54;99747.24;;;19.12;31.15
67803;BME280;54601;51.378;-1.342;2023-04-10T04:53:19;99745.58;;;19.27;30.96
67803;BME280;54601;51.378;-1.342;2023-04-10T04:55:44;99738.74;;;19.16;30.81
67803;BME280;54601;51.378;-1.342;2023-04-10T04:58:09;99728.28;;;19.00;31.26
67803;BME280;54601;51.378;-1.342;2023-04-10T05:00:34;99720.63;;;19.03;31.25
67803;BME280;54601;51.378;-1.342;2023-04-10T05:02:59;99718.73;;;19.08;31.15
67803;BME280;54601;51.378;-1.342;2023-04-10T05:05:24;99719.52;;;19.32;30.85
67803;BME280;54601;51.378;-1.342;2023-04-10T05:07:50;99715.21;;;19.26;30.88
67803;BME280;54601;51.378;-1.342;2023-04-10T05:10:15;99717.63;;;19.39;30.73
67803;BME280;54601;51.378;-1.342;2023-04-10T05:12:40;99720.30;;;19.17;31.03
67803;BME280;54601;51.378;-1.342;2023-04-10T05:15:06;99719.70;;;19.27;30.90
67803;BME280;54601;51.378;-1.342;2023-04-10T05:17:30;99722.09;;;19.15;31.01
67803;BME280;54601;51.378;-1.342;2023-04-10T05:19:55;99719.33;;;19.09;31.05
67803;BME280;54601;51.378;-1.342;2023-04-10T05:22:21;99717.88;;;19.09;31.10
67803;BME280;54601;51.378;-1.342;2023-04-10T05:24:46;99715.60;;;19.20;30.93
67803;BME280;54601;51.378;-1.342;2023-04-10T05:27:11;99717.12;;;19.22;30.90
67803;BME280;54601;51.378;-1.342;2023-04-10T05:29:36;99709.55;;;19.17;30.96
67803;BME280;54601;51.378;-1.342;2023-04-10T05:32:01;99703.83;;;19.16;30.98
67803;BME280;54601;51.378;-1.342;2023-04-10T05:34:26;99698.03;;;19.08;31.05
67803;BME280;54601;51.378;-1.342;2023-04-10T05:36:51;99693.16;;;19.18;30.95
67803;BME280;54601;51.378;-1.342;2023-04-10T05:39:17;99691.28;;;19.15;30.97
67803;BME280;54601;51.378;-1.342;2023-04-10T05:41:42;99694.30;;;19.07;31.07
67803;BME280;54601;51.378;-1.342;2023-04-10T05:44:07;99692.41;;;19.26;30.84
67803;BME280;54601;51.378;-1.342;2023-04-10T05:46:32;99691.03;;;18.91;31.00
67803;BME280;54601;51.378;-1.342;2023-04-10T05:48:58;99691.82;;;18.95;31.22
67803;BME280;54601;51.378;-1.342;2023-04-10T05:51:22;99691.97;;;19.00;31.14
67803;BME280;54601;51.378;-1.342;2023-04-10T05:53:49;99686.29;;;18.80;31.41
67803;BME280;54601;51.378;-1.342;2023-04-10T05:56:13;99682.18;;;19.16;31.00
67803;BME280;54601;51.378;-1.342;2023-04-10T05:58:38;99681.62;;;18.95;31.13
67803;BME280;54601;51.378;-1.342;2023-04-10T06:01:03;99680.83;;;19.15;30.97
67803;BME280;54601;51.378;-1.342;2023-04-10T06:03:28;99680.62;;;19.07;31.05
67803;BME280;54601;51.378;-1.342;2023-04-10T06:05:53;99679.69;;;19.10;31.02
67803;BME280;54601;51.378;-1.342;2023-04-10T06:08:18;99679.54;;;18.88;31.04
67803;BME280;54601;51.378;-1.342;2023-04-10T06:10:44;99675.85;;;19.03;31.10
67803;BME280;54601;51.378;-1.342;2023-04-10T06:13:09;99674.16;;;19.06;31.09
67803;BME280;54601;51.378;-1.342;2023-04-10T06:15:34;99669.31;;;18.88;31.27
67803;BME280;54601;51.378;-1.342;2023-04-10T06:17:59;99663.35;;;19.58;31.07
67803;BME280;54601;51.378;-1.342;2023-04-10T06:20:24;99661.81;;;18.94;31.27
67803;BME280;54601;51.378;-1.342;2023-04-10T06:22:50;99661.96;;;18.94;31.28
67803;BME280;54601;51.378;-1.342;2023-04-10T06:25:14;99662.53;;;19.04;31.19
67803;BME280;54601;51.378;-1.342;2023-04-10T06:27:39;99657.84;;;18.95;31.29
67803;BME280;54601;51.378;-1.342;2023-04-10T06:30:06;99650.60;;;18.80;31.57
67803;BME280;54601;51.378;-1.342;2023-04-10T06:32:30;99649.56;;;18.87;31.49
67803;BME280;54601;51.378;-1.342;2023-04-10T06:34:55;99646.43;;;18.89;31.45
67803;BME280;54601;51.378;-1.342;2023-04-10T06:37:26;99649.69;;;19.03;31.25
67803;BME280;54601;51.378;-1.342;2023-04-10T06:39:45;99642.18;;;18.78;31.70
67803;BME280;54601;51.378;-1.342;2023-04-10T06:42:10;99631.41;;;18.93;31.49
67803;BME280;54601;51.378;-1.342;2023-04-10T06:44:36;99628.77;;;19.01;31.48
67803;BME280;54601;51.378;-1.342;2023-04-10T06:47:01;99618.77;;;18.89;31.63
67803;BME280;54601;51.378;-1.342;2023-04-10T06:49:26;99609.43;;;18.79;31.86
67803;BME280;54601;51.378;-1.342;2023-04-10T06:51:51;99607.07;;;18.94;31.64
67803;BME280;54601;51.378;-1.342;2023-04-10T06:54:16;99595.66;;;18.97;31.65
67803;BME280;54601;51.378;-1.342;2023-04-10T06:56:41;99592.30;;;19.01;31.78
67803;BME280;54601;51.378;-1.342;2023-04-10T06:59:07;99587.11;;;19.22;31.51
67803;BME280;54601;51.378;-1.342;2023-04-10T07:01:32;99585.66;;;19.41;31.29
67803;BME280;54601;51.378;-1.342;2023-04-10T07:03:57;99584.12;;;19.28;31.57
67803;BME280;54601;51.378;-1.342;2023-04-10T07:06:22;99587.81;;;19.37;31.50
67803;BME280;54601;51.378;-1.342;2023-04-10T07:08:48;99591.16;;;19.38;31.51
67803;BME280;54601;51.378;-1.342;2023-04-10T07:11:12;99584.00;;;19.37;31.65
67803;BME280;54601;51.378;-1.342;2023-04-10T07:13:38;99575.63;;;19.26;31.62
67803;BME280;54601;51.378;-1.342;2023-04-10T07:16:03;99567.24;;;19.04;32.14
67803;BME280;54601;51.378;-1.342;2023-04-10T07:18:28;99573.69;;;19.11;32.05
67803;BME280;54601;51.378;-1.342;2023-04-10T07:20:53;99569.02;;;18.98;32.27
67803;BME280;54601;51.378;-1.342;2023-04-10T07:23:18;99567.53;;;19.09;32.11
67803;BME280;54601;51.378;-1.342;2023-04-10T07:25:43;99561.43;;;19.05;32.21
67803;BME280;54601;51.378;-1.342;2023-04-10T07:28:09;99559.19;;;18.93;32.24
67803;BME280;54601;51.378;-1.342;2023-04-10T07:30:34;99552.63;;;19.13;31.99
67803;BME280;54601;51.378;-1.342;2023-04-10T07:32:59;99550.52;;;19.03;32.22
67803;BME280;54601;51.378;-1.342;2023-04-10T07:35:24;99540.93;;;19.18;32.14
67803;BME280;54601;51.378;-1.342;2023-04-10T07:37:49;99535.58;;;19.07;32.34
67803;BME280;54601;51.378;-1.342;2023-04-10T07:40:14;99539.50;;;19.12;32.16
67803;BME280;54601;51.378;-1.342;2023-04-10T07:42:40;99537.46;;;19.06;31.99
67803;BME280;54601;51.378;-1.342;2023-04-10T07:45:06;99539.85;;;19.21;32.33
67803;BME280;54601;51.378;-1.342;2023-04-10T07:47:30;99535.60;;;19.19;32.37
67803;BME280;54601;51.378;-1.342;2023-04-10T07:49:55;99527.39;;;19.21;32.01
67803;BME280;54601;51.378;-1.342;2023-04-10T07:52:20;99528.25;;;19.41;32.06
67803;BME280;54601;51.378;-1.342;2023-04-10T07:54:45;99526.03;;;19.24;32.27
67803;BME280;54601;51.378;-1.342;2023-04-10T07:57:10;99522.56;;;19.46;31.97
67803;BME280;54601;51.378;-1.342;2023-04-10T07:59:36;99514.11;;;19.08;32.17
67803;BME280;54601;51.378;-1.342;2023-04-10T08:02:01;99510.86;;;19.33;32.25
67803;BME280;54601;51.378;-1.342;2023-04-10T08:04:26;99507.24;;;19.11;32.22
67803;BME280;54601;51.378;-1.342;2023-04-10T08:06:51;99504.38;;;19.41;32.22
67803;BME280;54601;51.378;-1.342;2023-04-10T08:09:16;99503.77;;;19.47;32.25
67803;BME280;54601;51.378;-1.342;2023-04-10T08:11:42;99503.58;;;19.45;32.22
67803;BME280;54601;51.378;-1.342;2023-04-10T08:14:07;99499.00;;;19.29;32.28
67803;BME280;54601;51.378;-1.342;2023-04-10T08:16:33;99494.55;;;19.48;32.23
67803;BME280;54601;51.378;-1.342;2023-04-10T08:18:58;99493.95;;;19.57;32.13
67803;BME280;54601;51.378;-1.342;2023-04-10T08:21:23;99496.08;;;19.49;32.21
67803;BME280;54601;51.378;-1.342;2023-04-10T08:23:49;99492.18;;;19.30;32.28
67803;BME280;54601;51.378;-1.342;2023-04-10T08:26:12;99488.24;;;19.47;32.42
67803;BME280;54601;51.378;-1.342;2023-04-10T08:28:38;99499.47;;;19.35;32.41
67803;BME280;54601;51.378;-1.342;2023-04-10T08:31:03;99496.80;;;19.30;32.40
67803;BME280;54601;51.378;-1.342;2023-04-10T08:33:28;99498.38;;;19.37;32.12
67803;BME280;54601;51.378;-1.342;2023-04-10T08:35:53;99498.25;;;19.21;32.55
67803;BME280;54601;51.378;-1.342;2023-04-10T08:38:18;99491.58;;;19.36;32.20
67803;BME280;54601;51.378;-1.342;2023-04-10T08:40:43;99491.67;;;19.59;32.56
67803;BME280;54601;51.378;-1.342;2023-04-10T08:43:09;99495.07;;;19.53;32.33
67803;BME280;54601;51.378;-1.342;2023-04-10T08:45:34;99493.14;;;19.14;32.80
67803;BME280;54601;51.378;-1.342;2023-04-10T08:48:01;99483.90;;;19.33;32.38
67803;BME280;54601;51.378;-1.342;2023-04-10T08:50:24;99477.57;;;19.54;32.53
67803;BME280;54601;51.378;-1.342;2023-04-10T08:52:51;99470.21;;;19.48;32.48
67803;BME280;54601;51.378;-1.342;2023-04-10T08:55:15;99462.26;;;19.33;32.48
67803;BME280;54601;51.378;-1.342;2023-04-10T08:57:40;99470.85;;;19.20;32.71
67803;BME280;54601;51.378;-1.342;2023-04-10T09:00:06;99480.23;;;19.29;32.83
67803;BME280;54601;51.378;-1.342;2023-04-10T09:02:30;99478.30;;;19.47;33.00
67803;BME280;54601;51.378;-1.342;2023-04-10T09:04:57;99478.70;;;19.32;32.98
67803;BME280;54601;51.378;-1.342;2023-04-10T09:07:20;99477.52;;;19.45;33.40
67803;BME280;54601;51.378;-1.342;2023-04-10T09:09:45;99472.42;;;19.30;33.39
67803;BME280;54601;51.378;-1.342;2023-04-10T09:12:12;99468.72;;;19.68;32.97
67803;BME280;54601;51.378;-1.342;2023-04-10T09:14:36;99485.52;;;19.34;33.16
67803;BME280;54601;51.378;-1.342;2023-04-10T09:17:10;99483.62;;;19.51;33.30
67803;BME280;54601;51.378;-1.342;2023-04-10T09:19:29;99484.15;;;19.41;33.05
67803;BME280;54601;51.378;-1.342;2023-04-10T09:21:51;99482.25;;;19.36;33.10
67803;BME280;54601;51.378;-1.342;2023-04-10T09:24:16;99482.35;;;19.42;33.13
67803;BME280;54601;51.378;-1.342;2023-04-10T09:26:41;99475.35;;;19.51;33.46
67803;BME280;54601;51.378;-1.342;2023-04-10T09:29:07;99470.73;;;19.20;33.12
67803;BME280;54601;51.378;-1.342;2023-04-10T09:31:33;99471.79;;;19.55;33.29
67803;BME280;54601;51.378;-1.342;2023-04-10T09:36:22;99457.85;;;19.69;33.12
67803;BME280;54601;51.378;-1.342;2023-04-10T09:38:50;99461.58;;;19.20;33.03
67803;BME280;54601;51.378;-1.342;2023-04-10T09:41:12;99457.23;;;19.70;32.92
67803;BME280;54601;51.378;-1.342;2023-04-10T09:43:38;99448.40;;;19.64;33.10
67803;BME280;54601;51.378;-1.342;2023-04-10T09:46:03;99451.29;;;19.70;32.87
67803;BME280;54601;51.378;-1.342;2023-04-10T09:48:28;99443.67;;;19.72;33.05
67803;BME280;54601;51.378;-1.342;2023-04-10T09:50:53;99445.73;;;19.70;32.92
67803;BME280;54601;51.378;-1.342;2023-04-10T09:53:19;99451.43;;;19.55;33.05
67803;BME280;54601;51.378;-1.342;2023-04-10T09:55:44;99441.92;;;19.66;32.99
67803;BME280;54601;51.378;-1.342;2023-04-10T09:58:10;99437.02;;;19.46;32.97
67803;BME280;54601;51.378;-1.342;2023-04-10T10:00:39;99433.93;;;19.52;32.88
67803;BME280;54601;51.378;-1.342;2023-04-10T10:03:00;99435.82;;;19.33;33.04
67803;BME280;54601;51.378;-1.342;2023-04-10T10:05:24;99420.78;;;19.77;32.82
67803;BME280;54601;51.378;-1.342;2023-04-10T10:07:49;99418.10;;;19.77;32.66
67803;BME280;54601;51.378;-1.342;2023-04-10T10:10:15;99412.16;;;19.78;32.73
67803;BME280;54601;51.378;-1.342;2023-04-10T10:12:46;99407.93;;;19.76;32.78
67803;BME280;54601;51.378;-1.342;2023-04-10T10:15:09;99409.22;;;19.61;32.82
67803;BME280;54601;51.378;-1.342;2023-04-10T10:17:33;99416.82;;;19.63;32.70
67803;BME280;54601;51.378;-1.342;2023-04-10T10:20:00;99405.90;;;19.81;32.87
67803;BME280;54601;51.378;-1.342;2023-04-10T10:22:21;99407.97;;;19.36;32.62
67803;BME280;54601;51.378;-1.342;2023-04-10T10:24:46;99408.71;;;19.64;32.82
67803;BME280;54601;51.378;-1.342;2023-04-10T10:27:11;99411.83;;;19.65;32.76
67803;BME280;54601;51.378;-1.342;2023-04-10T10:29:36;99404.86;;;19.66;32.62
67803;BME280;54601;51.378;-1.342;2023-04-10T10:32:02;99404.97;;;19.60;32.78
67803;BME280;54601;51.378;-1.342;2023-04-10T10:34:26;99410.68;;;19.49;32.97
67803;BME280;54601;51.378;-1.342;2023-04-10T10:36:51;99408.62;;;19.70;32.70
67803;BME280;54601;51.378;-1.342;2023-04-10T10:39:27;99404.15;;;19.24;32.98
67803;BME280;54601;51.378;-1.342;2023-04-10T10:41:46;99400.19;;;19.53;32.81
67803;BME280;54601;51.378;-1.342;2023-04-10T10:44:11;99406.47;;;19.93;32.66
67803;BME280;54601;51.378;-1.342;2023-04-10T10:46:36;99418.16;;;19.71;32.74
67803;BME280;54601;51.378;-1.342;2023-04-10T10:48:57;99425.06;;;19.22;33.01
67803;BME280;54601;51.378;-1.342;2023-04-10T10:51:22;99424.64;;;19.81;33.07
67803;BME280;54601;51.378;-1.342;2023-04-10T10:53:47;99425.00;;;19.65;32.84
67803;BME280;54601;51.378;-1.342;2023-04-10T10:58:46;99420.74;;;19.79;33.00
67803;BME280;54601;51.378;-1.342;2023-04-10T11:01:05;99415.70;;;19.43;33.27
67803;BME280;54601;51.378;-1.342;2023-04-10T11:03:28;99407.88;;;19.48;33.00
67803;BME280;54601;51.378;-1.342;2023-04-10T11:05:55;99398.48;;;19.44;33.34
67803;BME280;54601;51.378;-1.342;2023-04-10T11:13:13;99392.68;;;19.39;33.47
67803;BME280;54601;51.378;-1.342;2023-04-10T11:15:35;99393.17;;;19.59;33.65
67803;BME280;54601;51.378;-1.342;2023-04-10T11:17:59;99397.98;;;19.59;33.37
67803;BME280;54601;51.378;-1.342;2023-04-10T11:20:24;99387.28;;;19.57;33.55
67803;BME280;54601;51.378;-1.342;2023-04-10T11:25:15;99392.16;;;19.72;33.24
67803;BME280;54601;51.378;-1.342;2023-04-10T11:27:42;99396.96;;;19.81;33.49
67803;BME280;54601;51.378;-1.342;2023-04-10T11:32:39;99387.10;;;19.39;33.77
67803;BME280;54601;51.378;-1.342;2023-04-10T11:34:55;99392.56;;;19.52;33.48
67803;BME280;54601;51.378;-1.342;2023-04-10T11:37:22;99394.44;;;19.70;33.90
67803;BME280;54601;51.378;-1.342;2023-04-10T11:39:45;99388.96;;;19.40;34.07
67803;BME280;54601;51.378;-1.342;2023-04-10T11:42:10;99389.68;;;19.56;33.64
67803;BME280;54601;51.378;-1.342;2023-04-10T11:44:35;99382.84;;;19.71;33.47
67803;BME280;54601;51.378;-1.342;2023-04-10T11:47:00;99377.70;;;19.63;33.63
67803;BME280;54601;51.378;-1.342;2023-04-10T11:49:29;99372.12;;;19.79;33.53
67803;BME280;54601;51.378;-1.342;2023-04-10T11:51:51;99379.36;;;19.78;33.54
67803;BME280;54601;51.378;-1.342;2023-04-10T11:54:18;99385.01;;;19.90;33.43
67803;BME280;54601;51.378;-1.342;2023-04-10T11:56:43;99372.93;;;19.86;33.51
67803;BME280;54601;51.378;-1.342;2023-04-10T11:59:07;99376.40;;;20.07;33.63
67803;BME280;54601;51.378;-1.342;2023-04-10T12:01:31;99373.38;;;19.81;33.66
67803;BME280;54601;51.378;-1.342;2023-04-10T12:03:56;99363.59;;;19.88;33.58
67803;BME280;54601;51.378;-1.342;2023-04-10T12:06:22;99383.77;;;19.86;33.48
67803;BME280;54601;51.378;-1.342;2023-04-10T12:08:47;99389.56;;;19.86;33.71
67803;BME280;54601;51.378;-1.342;2023-04-10T12:11:12;99396.30;;;20.20;33.47
67803;BME280;54601;51.378;-1.342;2023-04-10T12:13:37;99393.39;;;19.83;33.70
67803;BME280;54601;51.378;-1.342;2023-04-10T12:16:05;99406.16;;;20.24;33.55
67803;BME280;54601;51.378;-1.342;2023-04-10T12:18:28;99415.84;;;19.80;33.69
67803;BME280;54601;51.378;-1.342;2023-04-10T12:20:52;99387.46;;;19.91;33.59
67803;BME280;54601;51.378;-1.342;2023-04-10T12:23:17;99397.40;;;19.98;33.41
67803;BME280;54601;51.378;-1.342;2023-04-10T12:25:42;99397.57;;;19.87;33.57
67803;BME280;54601;51.378;-1.342;2023-04-10T12:28:09;99405.63;;;19.77;33.61
67803;BME280;54601;51.378;-1.342;2023-04-10T12:30:32;99402.76;;;19.83;33.57
67803;BME280;54601;51.378;-1.342;2023-04-10T12:32:57;99412.88;;;19.89;33.52
67803;BME280;54601;51.378;-1.342;2023-04-10T12:37:49;99398.21;;;19.87;33.50
67803;BME280;54601;51.378;-1.342;2023-04-10T12:40:13;99414.60;;;19.73;33.70
67803;BME280;54601;51.378;-1.342;2023-04-10T12:42:39;99410.07;;;19.84;33.46
67803;BME280;54601;51.378;-1.342;2023-04-10T12:45:04;99413.30;;;19.82;33.40
67803;BME280;54601;51.378;-1.342;2023-04-10T12:47:28;99413.42;;;19.80;33.32
67803;BME280;54601;51.378;-1.342;2023-04-10T12:50:02;99417.66;;;19.81;33.11
67803;BME280;54601;51.378;-1.342;2023-04-10T12:52:21;99409.82;;;20.11;33.05